AirNav   Everest Fuels
 
 1365 users online  

58MO Mercy Hospital Jefferson Heliport
Crystal City, Missouri, USA

GOING TO CRYSTAL CITY?


FAA INFORMATION EFFECTIVE 05 NOVEMBER 2020

Location

FAA Identifier: 58MO
Lat/Long: 38-11-44.0100N 090-23-36.1800W
38-11.733500N 090-23.603000W
38.1955583,-90.3933833
(estimated)
Elevation: 435 ft. / 133 m (estimated)
Variation: 02E (1985)
From city: 1 mile S of CRYSTAL CITY, MO
Time zone: UTC -6 (UTC -5 during Daylight Saving Time)
Zip code: 63028

Heliport Operations

Heliport use: Private use, MEDICAL.
Activation date: 07/1989
Control tower: no
ARTCC: KANSAS CITY CENTER
FSS: SAINT LOUIS FLIGHT SERVICE STATION
Attendance: CONTINUOUS
Wind indicator: yes
Segmented circle: yes

Nearby radio navigation aids

VOR radial/distance  VOR name  Freq  Var
FAMr345/32.2FARMINGTON VORTAC115.7001E
TOYr210/39.5TROY VORTAC116.0004E

Heliport Services

Runway Information

Helipad H1

Dimensions: 60 x 60 ft. / 18 x 18 m
Surface: concrete
Latitude: 38-11.733500N
Longitude: 090-23.603000W
Elevation: 435.0 ft.
Traffic pattern: leftleft

Heliport Ownership and Management from official FAA records

Ownership: Privately-owned
Owner: MERCY HOSPITAL JEFFERSON
HWY 61 SOUTH
CRYSTAL CITY, MO 63019
Phone 314-933-1000
Manager: JOSEPH COPUS
1400 US HIGHWAY 61
CRYSTAL CITY, MO 63019
Phone 314-933-1000
SENIOR MANAGER OF FACILITIES.

Heliport Operational Statistics

Aircraft based on the field: 1
Helicopters: 1
    

Additional Remarks

A52-H1 70' BLDG 75' NORTH; 30' TREES 100' EAST & SOUTH.
FOR CD CTC ST LOUIS APCH AT 314-890-1018.

Instrument Procedures

There are no published instrument procedures at 58MO.

Some nearby airports with instrument procedures:

KFES - Festus Memorial Airport (0 nm E)
8WC - Washington County Airport (23 nm SW)
KCPS - St Louis Downtown Airport (25 nm NE)
KFAM - Farmington Regional Airport (26 nm S)
KSUS - Spirit of St Louis Airport (31 nm NW)
 
Loc | Ops | Rwys | IFR | FBO | Links
Com | Nav | Svcs | Stats | Notes
Area around 58MO (Mercy Hospital Jefferson Heliport)
 
Road maps at: MapQuest Bing Google
 
Aerial photo
No photo
 
Sectional chart

 
Airport distance calculator
Flying to Mercy Hospital Jefferson Heliport? Find the distance to fly.

From to 58MO

Sunrise and sunset
Times for 02-Dec-2020
 Local
(UTC-6)
 Zulu
(UTC)
Morning civil twilight06:3312:33
Sunrise07:0213:02
Sunset16:4122:41
Evening civil twilight17:1023:10

Current date and time
Zulu (UTC)  02-Dec-2020 15:34:42
Local (UTC-6)  02-Dec-2020 09:34:42
 
METAR
KCPS 
25nm NE 
021453Z 00000KT 10SM CLR M01/M03 A3041 RMK AO2 SLP301 I3000 T10111033 51020
KFAM 
26nm S 
021456Z AUTO 00000KT 10SM CLR 01/M04 A3038 RMK AO2 SLP306 T00061039 51017 FZRANO
KSUS 
30nm NW 
021454Z 06003KT 10SM CLR M01/M04 A3039 RMK AO2 SLP301 T10111044 51020
KPCD 
32nm SE 
021515Z AUTO 00000KT 10SM CLR M01/M03 A3041 RMK AO2 T10151035
KSAR 
33nm E 
021520Z AUTO 13003KT 10SM CLR 01/M03 A3042 RMK AO2
KBLV 
33nm NE 
021456Z AUTO 00000KT 10SM CLR M02/M02 A3041 RMK AO2 SLP307 T10171024 52021 $
KSTL 
33nm N 
021451Z 10006KT 10SM FEW200 BKN250 01/M04 A3040 RMK AO2 SLP304 T00061044 51020
KFYG 
37nm NW 
021455Z AUTO 00000KT 10SM CLR 00/M02 A3039 RMK AO2
KSET 
44nm N 
021454Z AUTO 08006KT 10SM CLR 01/M03 A3040 RMK AO2 SLP298 T00061033 51022
KALN 
45nm N 
021450Z VRB03KT 10SM CLR M02/M03 A3041
TAF
KCPS 
25nm NE 
021153Z 0212/0312 VRB04KT P6SM BKN250 FM030800 11004KT P6SM OVC090
KSUS 
30nm NW 
020520Z 0206/0306 VRB04KT P6SM BKN250
NOTAMs
Click for the latest NOTAMs
NOTAMs are issued by the DoD/FAA and will open in a separate window not controlled by AirNav.

 

 
 

Would you like to see your business listed on this page?

 If your business provides an interesting product or service to pilots, flight crews, aircraft, or users of the Mercy Hospital Jefferson Heliport, you should consider listing it here.  To start the listing process, click on the button below
 
Add a business
 

Other Pages about Mercy Hospital Jefferson Heliport

Update a link
 
Copyright © AirNav, LLC. All rights reserved. Privacy Policy  Contact